Time;durP1;ratioP1;P1;durP2;ratioP2;P2;SDS_P1;SDS_P2;PMS_P1;PMS_P2;Temp;Humidity;BMP_temperature;BMP_pressure;BME280_temperature;BME280_humidity;BME280_pressure;Samples;Min_cycle;Max_cycle;Signal;HPM_P1;HPM_P2
2022/11/04 00:01:52;;;;;;;;;0.00;0.00;;;;;11.92;80.03;99951.31;5051525;28;9539;-64
2022/11/04 00:04:21;;;;;;;;;0.00;0.00;;;;;11.92;80.08;99951.31;5050876;28;9618;-67
2022/11/04 00:06:47;;;;;;;;;1.00;1.00;;;;;11.94;80.21;99944.63;5052218;28;9445;-66
2022/11/04 00:09:20;;;;;;;;;1.00;0.00;;;;;11.90;80.16;99953.41;5051538;28;9454;-65
2022/11/04 00:14:33;;;;;;;;;0.00;0.00;;;;;11.87;80.18;99969.00;5051958;28;9527;-66
2022/11/04 00:17:18;;;;;;;;;0.25;0.25;;;;;11.91;80.41;99971.22;5051801;28;10282;-67
2022/11/04 00:33:24;;;;;;;;;0.00;0.00;;;;;11.86;79.93;99988.91;5050049;28;9534;-67
2022/11/04 00:33:50;;;;;;;;;0.00;0.00;;;;;11.86;80.32;99988.91;5046993;28;9580;-67
2022/11/04 00:36:17;;;;;;;;;0.00;0.00;;;;;11.82;79.96;100001.16;5051394;28;9558;-67
2022/11/04 00:38:43;;;;;;;;;0.00;0.00;;;;;11.77;80.02;100011.78;5051162;28;10226;-67
2022/11/04 00:41:24;;;;;;;;;1.50;0.00;;;;;11.70;80.37;100012.88;5050682;28;9499;-67
2022/11/04 00:43:59;;;;;;;;;0.50;0.50;;;;;11.61;80.40;100006.97;5050762;28;9558;-67
2022/11/04 00:46:27;;;;;;;;;0.00;0.00;;;;;11.60;80.73;100013.41;5050226;28;9571;-67
2022/11/04 00:48:54;;;;;;;;;1.00;0.00;;;;;11.61;80.93;100015.88;5049592;28;9612;-67
2022/11/04 00:51:21;;;;;;;;;0.00;0.00;;;;;11.62;80.86;100020.22;5050229;28;9377;-66
2022/11/04 00:53:48;;;;;;;;;0.00;0.00;;;;;11.64;80.76;100028.09;5050848;28;9486;-66
2022/11/04 00:56:14;;;;;;;;;0.75;0.75;;;;;11.66;80.78;100031.38;5050891;28;10191;-65
2022/11/04 00:58:40;;;;;;;;;0.00;0.00;;;;;11.68;80.70;100029.31;5049947;28;9582;-65
2022/11/04 01:01:12;;;;;;;;;0.00;0.00;;;;;11.71;80.61;100030.72;5050327;28;9566;-65
2022/11/04 01:03:39;;;;;;;;;0.00;0.00;;;;;11.74;80.54;100035.66;5049975;28;9582;-65
2022/11/04 01:06:05;;;;;;;;;0.00;0.00;;;;;11.75;80.24;100037.31;5050507;28;9692;-65
2022/11/04 01:08:32;;;;;;;;;0.50;0.00;;;;;11.74;80.00;100046.44;5050603;28;10389;-65
2022/11/04 01:11:03;;;;;;;;;0.00;0.00;;;;;11.72;79.71;100052.06;5049193;28;10420;-65
2022/11/04 01:13:29;;;;;;;;;0.00;0.00;;;;;11.72;80.15;100054.78;5050182;28;9692;-64
2022/11/04 01:16:00;;;;;;;;;1.00;0.00;;;;;11.65;79.63;100070.16;5045859;28;9469;-65
2022/11/04 01:18:27;;;;;;;;;0.00;0.00;;;;;11.66;79.45;100060.22;5050440;28;9592;-65
2022/11/04 01:20:54;;;;;;;;;0.00;0.00;;;;;11.62;79.94;100070.59;5050538;28;9650;-65
2022/11/04 01:23:20;;;;;;;;;0.50;0.00;;;;;11.61;79.42;100069.78;5050382;28;9754;-65
2022/11/04 01:25:47;;;;;;;;;0.00;0.00;;;;;11.63;79.99;100075.78;5050254;28;9575;-65
2022/11/04 01:28:13;;;;;;;;;0.00;0.00;;;;;11.64;79.72;100082.84;5050021;28;9575;-65
2022/11/04 01:30:39;;;;;;;;;1.00;0.00;;;;;11.64;79.78;100092.78;5049774;28;9668;-65
2022/11/04 01:33:06;;;;;;;;;0.00;0.00;;;;;11.63;79.92;100091.97;5048527;28;10385;-66
2022/11/04 01:35:32;;;;;;;;;0.00;0.00;;;;;11.65;79.94;100107.91;5030527;28;9690;-67
2022/11/04 01:37:59;;;;;;;;;1.00;0.00;;;;;11.66;80.00;100112.25;5030397;28;9471;-65
2022/11/04 01:40:25;;;;;;;;;0.00;0.00;;;;;11.63;79.88;100112.72;5030118;28;9524;-67
2022/11/04 01:42:52;;;;;;;;;0.00;0.00;;;;;11.60;79.89;100115.84;5048718;28;9531;-65
2022/11/04 01:45:20;;;;;;;;;0.00;0.00;;;;;11.61;80.11;100112.09;5049901;28;9610;-65
2022/11/04 01:47:58;;;;;;;;;0.00;0.00;;;;;11.58;80.20;100117.91;5049230;28;9587;-66
2022/11/04 01:50:31;;;;;;;;;0.00;0.00;;;;;11.57;80.48;100117.09;5049966;28;9684;-65
2022/11/04 01:53:06;;;;;;;;;1.00;1.00;;;;;11.57;80.38;100117.09;5049672;28;9600;-66
2022/11/04 01:55:39;;;;;;;;;0.00;0.00;;;;;11.57;80.42;100121.66;5050078;28;9493;-65
2022/11/04 01:58:11;;;;;;;;;0.00;0.00;;;;;11.55;80.48;100116.50;5049999;28;9634;-65
2022/11/04 02:00:38;;;;;;;;;1.75;0.00;;;;;11.53;80.40;100136.63;5049323;28;9765;-67
2022/11/04 02:03:09;;;;;;;;;0.00;0.00;;;;;11.46;80.25;100135.81;5053843;28;9697;-66
2022/11/04 02:05:37;;;;;;;;;0.00;0.00;;;;;11.46;80.69;100139.34;5034313;28;9732;-66
2022/11/04 02:08:06;;;;;;;;;0.00;0.00;;;;;11.49;80.62;100144.31;5043309;28;9624;-65
2022/11/04 02:10:33;;;;;;;;;0.00;0.00;;;;;11.51;80.42;100149.50;5053676;28;9596;-66
2022/11/04 02:13:03;;;;;;;;;0.00;0.00;;;;;11.49;80.70;100152.41;5052583;28;10467;-66
2022/11/04 02:15:56;;;;;;;;;0.25;0.00;;;;;11.50;80.32;100166.69;5052822;28;9605;-65
2022/11/04 02:18:48;;;;;;;;;0.00;0.00;;;;;11.49;80.39;100167.75;5053285;28;9704;-66
2022/11/04 02:21:14;;;;;;;;;0.00;0.00;;;;;11.51;80.44;100176.47;5053807;28;9595;-66
2022/11/04 02:23:46;;;;;;;;;0.00;0.00;;;;;11.41;79.86;100176.91;5053563;28;9764;-65
2022/11/04 02:26:37;;;;;;;;;0.00;0.00;;;;;11.28;78.80;100185.06;5052892;28;9534;-66
2022/11/04 02:29:14;;;;;;;;;0.00;0.00;;;;;11.16;79.50;100173.31;5053122;28;9611;-65
2022/11/04 02:32:13;;;;;;;;;0.00;0.00;;;;;11.10;79.45;100174.97;5052029;28;9746;-65
2022/11/04 02:34:49;;;;;;;;;0.00;0.00;;;;;11.04;79.60;100167.78;5053022;28;10549;-66
2022/11/04 02:37:29;;;;;;;;;0.00;0.00;;;;;11.05;79.94;100164.03;5053312;28;9584;-68
2022/11/04 02:40:28;;;;;;;;;1.00;0.00;;;;;11.07;79.98;100165.47;5051436;28;9849;-66
2022/11/04 02:43:11;;;;;;;;;0.00;0.00;;;;;11.13;79.68;100171.88;5048052;28;9671;-66
2022/11/04 02:45:44;;;;;;;;;0.00;0.00;;;;;11.16;79.53;100176.00;5052730;28;9731;-64
2022/11/04 02:48:21;;;;;;;;;0.25;0.00;;;;;11.17;79.16;100181.16;5053120;28;9839;-65
2022/11/04 02:50:52;;;;;;;;;0.00;0.00;;;;;11.15;79.08;100175.19;5052314;28;9978;-66
2022/11/04 02:53:32;;;;;;;;;0.00;0.00;;;;;11.10;78.89;100180.38;5052962;28;9821;-65
2022/11/04 02:56:01;;;;;;;;;0.00;0.00;;;;;11.07;78.77;100187.03;5040612;28;9896;-66
2022/11/04 02:58:36;;;;;;;;;0.00;0.00;;;;;11.02;79.14;100188.69;5052861;28;9757;-64
2022/11/04 03:01:06;;;;;;;;;0.00;0.00;;;;;11.06;79.37;100190.78;5051692;28;9713;-66
2022/11/04 03:03:39;;;;;;;;;0.00;0.00;;;;;11.08;79.38;100188.66;5033004;28;9877;-66
2022/11/04 03:06:11;;;;;;;;;0.00;0.00;;;;;11.11;79.21;100198.19;5032959;28;10762;-64
2022/11/04 03:08:43;;;;;;;;;0.50;0.50;;;;;11.12;79.44;100197.16;5044718;28;9789;-65
2022/11/04 03:11:22;;;;;;;;;0.00;0.00;;;;;11.09;78.74;100198.41;5052928;28;9885;-65
2022/11/04 03:14:01;;;;;;;;;0.00;0.00;;;;;11.07;79.07;100195.09;5051494;28;9827;-65
2022/11/04 03:16:36;;;;;;;;;0.00;0.00;;;;;11.06;78.74;100198.84;5052793;28;9743;-66
2022/11/04 03:19:28;;;;;;;;;0.00;0.00;;;;;11.02;78.97;100205.69;5051440;28;10588;-66
2022/11/04 03:22:01;;;;;;;;;0.00;0.00;;;;;11.00;78.59;100201.56;5052790;28;9907;-65
2022/11/04 03:24:30;;;;;;;;;0.00;0.00;;;;;11.01;78.69;100220.19;5032774;28;10497;-66
2022/11/04 03:27:01;;;;;;;;;0.00;0.00;;;;;11.00;78.72;100209.63;5032685;28;9743;-67
2022/11/04 03:29:38;;;;;;;;;0.00;0.00;;;;;11.01;78.45;100224.75;5041371;28;9815;-66
2022/11/04 03:32:23;;;;;;;;;0.00;0.00;;;;;11.00;78.42;100223.91;5051738;28;9766;-66
2022/11/04 03:34:51;;;;;;;;;0.75;0.00;;;;;10.99;78.58;100224.16;5052036;28;9881;-66
2022/11/04 03:37:17;;;;;;;;;0.00;0.00;;;;;10.98;78.59;100226.00;5051184;28;9701;-65
2022/11/04 03:39:44;;;;;;;;;0.00;0.00;;;;;10.95;78.64;100228.31;5051092;28;9748;-66
2022/11/04 03:42:18;;;;;;;;;0.00;0.00;;;;;10.94;78.25;100227.47;5051669;28;9841;-67
2022/11/04 03:44:49;;;;;;;;;0.00;0.00;;;;;10.92;78.56;100228.72;5052345;28;9963;-66
2022/11/04 03:47:17;;;;;;;;;0.00;0.00;;;;;10.89;78.23;100227.25;5052023;28;9747;-66
2022/11/04 03:49:46;;;;;;;;;0.00;0.00;;;;;10.86;78.51;100220.44;5052015;28;9849;-66
2022/11/04 03:52:13;;;;;;;;;0.00;0.00;;;;;10.91;78.30;100224.38;5051026;28;9830;-66
2022/11/04 03:54:40;;;;;;;;;0.00;0.00;;;;;10.88;78.21;100239.06;5052043;28;9689;-67
2022/11/04 03:57:16;;;;;;;;;1.00;0.00;;;;;10.87;78.12;100232.03;5051374;28;10507;-67
2022/11/04 04:00:12;;;;;;;;;0.00;0.00;;;;;10.80;78.23;100242.81;5050434;28;9886;-66
2022/11/04 04:03:10;;;;;;;;;1.00;0.00;;;;;10.77;78.19;100245.09;5047904;28;9838;-67
2022/11/04 04:05:46;;;;;;;;;0.00;0.00;;;;;10.75;78.45;100247.19;5051109;28;10004;-65
2022/11/04 04:08:25;;;;;;;;;0.00;0.00;;;;;10.72;78.81;100245.72;5049820;28;9774;-67
2022/11/04 04:11:05;;;;;;;;;0.00;0.00;;;;;10.72;78.57;100240.34;5051547;28;9840;-66
2022/11/04 04:13:44;;;;;;;;;0.00;0.00;;;;;10.66;78.66;100254.66;5045725;28;9865;-65
2022/11/04 04:16:19;;;;;;;;;1.00;0.00;;;;;10.65;78.79;100263.75;5051801;28;9884;-66
2022/11/04 04:18:58;;;;;;;;;0.25;0.00;;;;;10.67;79.30;100261.69;5050595;28;10066;-65
2022/11/04 04:21:32;;;;;;;;;0.00;0.00;;;;;10.70;79.59;100271.22;5051102;28;9977;-66
2022/11/04 04:29:36;;;;;;;;;0.00;0.00;;;;;10.76;79.46;100279.28;5049325;28;9922;-66
2022/11/04 04:32:04;;;;;;;;;0.00;0.00;;;;;10.79;79.22;100280.72;5051004;28;10222;-66
2022/11/04 04:34:32;;;;;;;;;0.00;0.00;;;;;10.80;78.96;100279.69;5050282;28;9910;-65
2022/11/04 04:37:07;;;;;;;;;0.50;0.00;;;;;10.81;79.37;100286.72;5051120;28;10636;-66
2022/11/04 04:45:22;;;;;;;;;0.75;0.00;;;;;10.82;79.33;100297.31;5050844;28;9755;-66
2022/11/04 04:47:49;;;;;;;;;0.00;0.00;;;;;10.82;79.07;100297.31;5051056;28;9861;-66
2022/11/04 04:50:18;;;;;;;;;0.00;0.00;;;;;10.83;78.95;100304.34;5049666;28;9827;-66
2022/11/04 04:52:47;;;;;;;;;0.00;0.00;;;;;10.84;78.94;100295.22;5049158;28;9904;-66
2022/11/04 04:55:14;;;;;;;;;0.00;0.00;;;;;10.85;79.42;100296.03;5050275;28;9806;-67
2022/11/04 04:57:41;;;;;;;;;1.75;0.00;;;;;10.87;79.05;100300.19;5050453;28;9948;-67
2022/11/04 05:00:12;;;;;;;;;0.00;0.00;;;;;10.91;78.92;100302.47;5049754;28;9851;-65
2022/11/04 05:02:39;;;;;;;;;0.00;0.00;;;;;10.91;79.01;100300.59;5050120;28;9807;-66
2022/11/04 05:05:05;;;;;;;;;0.00;0.00;;;;;10.91;79.24;100291.69;5050389;28;9968;-65
2022/11/04 05:07:32;;;;;;;;;1.00;0.00;;;;;10.93;79.34;100297.69;5049649;28;10662;-66
2022/11/04 05:09:58;;;;;;;;;0.00;0.00;;;;;10.95;79.19;100304.53;5050273;28;9833;-66
2022/11/04 05:13:24;;;;;;;;;0.00;0.00;;;;;10.96;78.82;100297.28;5050534;28;9895;-66
2022/11/04 05:15:11;;;;;;;;;0.00;0.00;;;;;10.96;78.71;100294.56;5049986;28;10022;-66
2022/11/04 05:17:38;;;;;;;;;1.50;1.00;;;;;10.94;78.86;100299.31;5052646;28;9904;-66
2022/11/04 05:20:05;;;;;;;;;0.00;0.00;;;;;10.95;78.69;100303.69;5049992;28;9887;-66
2022/11/04 05:22:31;;;;;;;;;0.00;0.00;;;;;10.92;78.97;100310.31;5050846;28;9757;-66
2022/11/04 05:24:57;;;;;;;;;0.00;0.00;;;;;10.89;79.02;100308.88;5053137;28;9730;-66
2022/11/04 05:27:24;;;;;;;;;0.00;0.00;;;;;10.83;78.87;100308.91;5052247;28;9910;-65
2022/11/04 05:29:50;;;;;;;;;1.25;1.25;;;;;10.77;78.75;100313.22;5048379;28;10832;-66
2022/11/04 05:32:16;;;;;;;;;1.00;0.75;;;;;10.75;78.91;100314.50;5049827;28;9997;-67
2022/11/04 05:34:43;;;;;;;;;0.00;0.00;;;;;10.77;79.56;100313.22;5049547;28;10683;-66
2022/11/04 05:37:09;;;;;;;;;0.00;0.00;;;;;10.80;79.56;100312.81;5049801;28;9907;-66
2022/11/04 05:39:36;;;;;;;;;0.00;0.00;;;;;10.84;79.33;100315.94;5049949;28;9823;-66
2022/11/04 05:42:02;;;;;;;;;0.00;0.00;;;;;10.88;79.29;100317.16;5050505;28;10438;-66
2022/11/04 05:44:29;;;;;;;;;1.75;1.00;;;;;10.89;79.24;100322.31;5049906;28;9910;-66
2022/11/04 05:46:55;;;;;;;;;0.00;0.00;;;;;10.92;79.16;100328.34;5050329;28;9901;-67
2022/11/04 05:49:21;;;;;;;;;1.25;0.75;;;;;10.91;79.11;100332.91;5048827;28;9823;-67
2022/11/04 05:51:48;;;;;;;;;0.00;0.00;;;;;10.89;79.26;100351.94;5050708;28;9829;-67
2022/11/04 05:54:14;;;;;;;;;0.00;0.00;;;;;10.87;79.24;100348.66;5049879;28;10000;-67
2022/11/04 05:56:40;;;;;;;;;0.00;0.00;;;;;10.89;79.02;100346.56;5050116;28;9911;-67
2022/11/04 05:59:07;;;;;;;;;0.00;0.00;;;;;10.91;79.48;100349.06;5048912;28;9905;-67
2022/11/04 06:01:39;;;;;;;;;3.50;1.00;;;;;10.89;79.17;100357.34;5049178;28;9928;-67
2022/11/04 06:04:14;;;;;;;;;6.50;3.00;;;;;10.86;79.03;100354.25;5047367;28;9991;-66
2022/11/04 06:06:42;;;;;;;;;5.00;3.50;;;;;10.84;79.41;100351.75;5042839;28;11038;-67
2022/11/04 06:09:09;;;;;;;;;9.00;7.25;;;;;10.86;79.04;100363.16;5049742;28;10065;-67
2022/11/04 06:11:37;;;;;;;;;8.50;6.50;;;;;10.87;79.33;100358.59;5048485;28;10355;-67
2022/11/04 06:14:03;;;;;;;;;6.00;6.00;;;;;10.84;78.98;100359.84;5048904;28;10407;-67
2022/11/04 06:16:30;;;;;;;;;6.25;6.25;;;;;10.84;79.33;100357.13;5049133;28;10120;-67
2022/11/04 06:18:56;;;;;;;;;11.00;11.00;;;;;10.85;79.02;100369.56;5048768;28;10286;-67
2022/11/04 06:21:32;;;;;;;;;9.75;7.00;;;;;10.84;79.36;100362.53;5049531;28;10363;-67
2022/11/04 06:23:59;;;;;;;;;9.25;8.00;;;;;10.83;78.84;100358.19;5049848;28;10161;-67
2022/11/04 06:26:26;;;;;;;;;12.50;12.50;;;;;10.82;79.19;100371.88;5047819;28;10215;-67
2022/11/04 06:28:54;;;;;;;;;10.75;10.00;;;;;10.81;79.45;100370.19;5048982;28;10369;-67
2022/11/04 06:31:20;;;;;;;;;11.25;10.50;;;;;10.80;79.23;100376.59;5048537;28;10338;-67
2022/11/04 06:33:47;;;;;;;;;11.25;9.25;;;;;10.78;79.21;100373.31;5048694;28;10327;-67
2022/11/04 06:36:14;;;;;;;;;18.25;13.50;;;;;10.78;79.67;100378.69;5047074;28;10336;-67
2022/11/04 06:38:41;;;;;;;;;15.00;12.50;;;;;10.76;78.95;100386.97;5049256;28;10332;-67
2022/11/04 06:41:12;;;;;;;;;14.50;14.50;;;;;10.71;79.03;100386.75;5048038;28;10262;-67
2022/11/04 06:43:39;;;;;;;;;13.50;13.50;;;;;10.70;79.27;100390.50;5048699;28;10454;-67
2022/11/04 06:46:28;;;;;;;;;14.25;12.75;;;;;10.71;79.60;100394.84;5049147;28;10550;-67
2022/11/04 06:48:55;;;;;;;;;15.50;14.00;;;;;10.68;79.14;100397.94;5050742;28;11267;-66
2022/11/04 06:51:23;;;;;;;;;23.25;17.25;;;;;10.67;79.45;100403.53;5052849;28;10462;-67
2022/11/04 06:53:50;;;;;;;;;15.00;15.00;;;;;10.66;79.08;100404.56;5052059;28;10418;-67
2022/11/04 06:56:16;;;;;;;;;18.50;17.50;;;;;10.65;79.12;100414.50;5052256;28;11266;-67
2022/11/04 06:58:46;;;;;;;;;18.00;16.00;;;;;10.66;79.58;100410.78;5052590;28;10570;-67
2022/11/04 07:01:13;;;;;;;;;23.50;20.00;;;;;10.63;79.37;100417.41;5052367;28;11749;-67
2022/11/04 07:03:52;;;;;;;;;20.00;18.50;;;;;10.63;79.49;100422.78;5050115;28;10637;-65
2022/11/04 07:06:20;;;;;;;;;17.25;16.25;;;;;10.67;79.73;100425.88;5051450;28;10567;-67
2022/11/04 07:08:48;;;;;;;;;22.75;18.25;;;;;10.70;79.70;100425.50;5051335;28;10418;-66
2022/11/04 07:11:16;;;;;;;;;23.75;21.75;;;;;10.70;79.47;100432.75;5051996;28;10478;-64
2022/11/04 07:13:42;;;;;;;;;22.00;18.75;;;;;10.70;79.47;100438.94;5052433;28;10636;-63
2022/11/04 07:16:09;;;;;;;;;37.75;31.25;;;;;10.70;79.56;100441.66;5051440;28;10552;-64
2022/11/04 07:18:35;;;;;;;;;13.50;13.00;;;;;10.68;79.57;100453.63;5051225;28;10908;-65
2022/11/04 07:21:02;;;;;;;;;19.50;16.50;;;;;10.68;79.22;100464.41;5053255;28;10505;-65
2022/11/04 07:23:35;;;;;;;;;26.00;25.25;;;;;10.64;79.56;100458.59;5049997;28;10545;-65
2022/11/04 07:26:03;;;;;;;;;18.00;17.50;;;;;10.64;79.78;100470.19;5051131;28;10734;-63
2022/11/04 07:28:30;;;;;;;;;24.75;20.50;;;;;10.63;79.35;100465.03;5050935;28;10478;-65
2022/11/04 07:31:01;;;;;;;;;21.50;19.00;;;;;10.55;79.72;100462.50;5052011;28;10606;-64
2022/11/04 07:33:28;;;;;;;;;29.50;23.50;;;;;10.53;79.68;100461.88;5051763;28;10721;-65
2022/11/04 07:35:54;;;;;;;;;23.00;21.00;;;;;10.50;79.75;100465.81;5051164;28;10843;-65
2022/11/04 07:38:24;;;;;;;;;22.75;16.00;;;;;10.49;79.85;100472.25;5038627;28;10771;-65
2022/11/04 07:40:50;;;;;;;;;18.25;16.25;;;;;10.49;79.57;100469.56;5047174;28;10515;-65
2022/11/04 07:43:17;;;;;;;;;18.75;17.50;;;;;10.51;79.57;100472.03;5049991;28;10557;-65
2022/11/04 07:45:44;;;;;;;;;27.00;17.75;;;;;10.52;80.11;100474.50;5052582;28;10661;-64
2022/11/04 07:48:11;;;;;;;;;16.50;15.00;;;;;10.42;79.50;100473.25;5047379;28;10573;-65
2022/11/04 07:50:39;;;;;;;;;16.25;14.50;;;;;10.47;80.33;100476.97;5049569;28;10502;-65
2022/11/04 07:53:06;;;;;;;;;15.00;10.25;;;;;10.53;80.01;100480.72;5047213;28;11135;-65
2022/11/04 07:55:36;;;;;;;;;14.00;14.00;;;;;10.52;80.21;100479.06;5047112;28;10498;-65
2022/11/04 07:58:09;;;;;;;;;18.50;14.50;;;;;10.52;79.87;100487.13;5053181;28;10462;-66
2022/11/04 08:00:36;;;;;;;;;23.25;18.75;;;;;10.52;79.45;100496.03;5047326;28;10480;-65
2022/11/04 08:03:02;;;;;;;;;17.75;12.00;;;;;10.53;80.19;100496.84;5048472;28;10629;-66
2022/11/04 08:05:28;;;;;;;;;18.00;17.00;;;;;10.57;79.94;100516.97;5050406;28;10496;-65
2022/11/04 08:07:56;;;;;;;;;23.00;16.50;;;;;10.56;79.65;100510.75;5050487;28;10365;-65
2022/11/04 08:10:22;;;;;;;;;16.50;10.50;;;;;10.55;79.44;100513.66;5049782;28;10475;-64
2022/11/04 08:12:50;;;;;;;;;13.00;13.00;;;;;10.52;79.42;100530.19;5049858;28;10571;-66
2022/11/04 08:15:17;;;;;;;;;14.00;11.50;;;;;10.53;80.04;100526.47;5048563;28;10342;-64
2022/11/04 08:17:43;;;;;;;;;14.75;14.50;;;;;10.53;79.35;100535.41;5048836;28;11089;-65
2022/11/04 08:20:11;;;;;;;;;22.25;21.75;;;;;10.52;79.18;100538.25;5052216;28;10405;-64
2022/11/04 08:22:38;;;;;;;;;19.75;15.00;;;;;10.52;79.16;100543.66;5048415;28;10496;-64
2022/11/04 08:25:04;;;;;;;;;16.25;15.00;;;;;10.54;79.87;100542.44;5046411;28;11088;-64
2022/11/04 08:27:31;;;;;;;;;18.25;12.75;;;;;10.57;79.52;100543.88;5050579;28;10344;-64
2022/11/04 08:29:58;;;;;;;;;14.25;14.25;;;;;10.57;79.42;100546.56;5050087;28;10392;-64
2022/11/04 08:32:24;;;;;;;;;22.50;18.50;;;;;10.55;79.09;100538.69;5053111;28;11193;-64
2022/11/04 08:34:50;;;;;;;;;16.75;16.00;;;;;10.55;79.43;100546.78;5050200;28;10417;-65
2022/11/04 08:37:17;;;;;;;;;17.50;14.25;;;;;10.57;79.52;100546.56;5049609;28;10578;-65
2022/11/04 08:39:43;;;;;;;;;17.25;14.75;;;;;10.59;79.76;100557.97;5049719;28;10442;-65
2022/11/04 08:42:10;;;;;;;;;15.50;15.25;;;;;10.62;79.27;100547.63;5048969;28;10404;-65
2022/11/04 08:44:38;;;;;;;;;21.75;18.25;;;;;10.68;79.53;100553.22;5047138;28;10407;-66
2022/11/04 08:47:05;;;;;;;;;15.75;15.00;;;;;10.73;79.45;100548.91;5048974;28;11321;-65
2022/11/04 08:49:36;;;;;;;;;20.50;13.50;;;;;10.78;79.37;100551.84;5046965;28;10322;-65
2022/11/04 08:52:03;;;;;;;;;20.50;18.25;;;;;10.78;79.56;100549.13;5049685;28;10383;-65
2022/11/04 08:54:29;;;;;;;;;16.50;16.00;;;;;10.85;79.63;100543.75;5051344;28;10388;-64
2022/11/04 08:56:57;;;;;;;;;15.50;12.50;;;;;10.91;79.48;100545.66;5049729;28;10320;-65
2022/11/04 08:59:23;;;;;;;;;20.00;17.75;;;;;10.95;79.03;100540.69;5049586;28;10298;-65
2022/11/04 09:01:50;;;;;;;;;18.75;16.25;;;;;10.94;78.96;100544.38;5049512;28;10306;-64
2022/11/04 09:04:18;;;;;;;;;15.50;13.75;;;;;10.99;78.90;100539.25;5046905;28;10324;-65
2022/11/04 09:06:45;;;;;;;;;16.75;15.00;;;;;11.05;78.97;100550.00;5049544;28;10418;-65
2022/11/04 09:09:14;;;;;;;;;14.25;12.75;;;;;11.07;78.91;100556.03;5054602;28;10477;-65
2022/11/04 09:11:42;;;;;;;;;14.75;14.75;;;;;11.19;78.88;100560.84;5046582;28;10247;-65
2022/11/04 09:14:09;;;;;;;;;18.00;16.00;;;;;11.28;78.86;100564.97;5049568;28;10256;-65
2022/11/04 09:16:37;;;;;;;;;14.50;14.50;;;;;11.27;78.52;100579.50;5050009;28;10427;-64
2022/11/04 09:19:04;;;;;;;;;19.50;18.25;;;;;11.22;78.29;100572.03;5051017;28;10915;-65
2022/11/04 09:21:30;;;;;;;;;15.00;15.00;;;;;11.21;78.37;100575.72;5048405;28;10314;-65
2022/11/04 09:23:57;;;;;;;;;15.00;14.00;;;;;11.30;78.83;100579.06;5049000;28;11341;-66
2022/11/04 09:26:24;;;;;;;;;9.50;9.00;;;;;11.55;80.21;100584.72;5048847;28;10776;-65
2022/11/04 09:28:55;;;;;;;;;23.00;16.25;;;;;11.63;78.65;100585.31;5053654;28;9912;-65
2022/11/04 09:31:23;;;;;;;;;15.00;12.50;;;;;11.63;78.50;100588.03;5054638;28;10231;-65
2022/11/04 09:33:49;;;;;;;;;13.75;12.00;;;;;11.66;78.15;100594.03;5045692;28;10115;-66
2022/11/04 09:36:16;;;;;;;;;15.50;13.00;;;;;11.68;78.33;100595.47;5044146;28;10871;-64
2022/11/04 09:38:43;;;;;;;;;14.00;14.00;;;;;11.71;77.60;100597.78;5049574;28;9859;-65
2022/11/04 09:41:19;;;;;;;;;11.25;11.00;;;;;11.70;77.97;100597.97;5044537;28;10094;-64
2022/11/04 09:44:13;;;;;;;;;13.00;10.50;;;;;11.70;77.48;100606.88;5047364;28;10074;-65
2022/11/04 09:46:40;;;;;;;;;11.25;11.00;;;;;11.68;77.39;100613.53;5049799;28;9924;-66
2022/11/04 09:49:10;;;;;;;;;15.75;13.00;;;;;11.66;77.41;100620.97;5047356;28;10050;-66
2022/11/04 09:51:40;;;;;;;;;16.00;16.00;;;;;11.61;76.84;100619.72;5048758;28;10149;-66
2022/11/04 09:54:30;;;;;;;;;9.50;9.50;;;;;11.61;77.08;100633.22;5046912;28;10113;-67
2022/11/04 09:56:59;;;;;;;;;11.50;9.75;;;;;11.61;77.44;100635.91;5049458;28;10039;-65
2022/11/04 09:59:31;;;;;;;;;15.25;15.25;;;;;11.62;77.48;100642.13;5053259;28;10134;-65
2022/11/04 10:02:23;;;;;;;;;9.75;8.75;;;;;11.63;77.28;100643.81;5047658;28;9899;-66
2022/11/04 10:05:16;;;;;;;;;12.75;12.75;;;;;11.69;77.18;100656.44;5053075;28;9997;-65
2022/11/04 10:08:00;;;;;;;;;14.25;9.50;;;;;11.69;77.36;100664.53;5047153;28;10150;-66
2022/11/04 10:10:53;;;;;;;;;11.75;8.25;;;;;11.71;77.46;100662.50;5052463;28;10077;-65
2022/11/04 10:13:45;;;;;;;;;11.00;11.00;;;;;11.73;77.36;100663.09;5060855;28;10042;-66
2022/11/04 10:16:19;;;;;;;;;12.75;11.50;;;;;11.73;77.35;100668.47;5064491;28;10212;-65
2022/11/04 10:18:58;;;;;;;;;9.00;9.00;;;;;11.77;77.41;100661.66;5033536;28;10935;-67
2022/11/04 10:22:03;;;;;;;;;12.75;9.25;;;;;11.82;77.31;100669.94;5048379;28;9906;-67
2022/11/04 10:24:41;;;;;;;;;4.75;4.75;;;;;11.85;77.34;100669.56;5053948;28;10030;-66
2022/11/04 10:27:14;;;;;;;;;8.00;8.00;;;;;11.86;77.30;100675.78;5071749;28;9855;-67
2022/11/04 10:29:47;;;;;;;;;9.50;7.75;;;;;11.87;77.15;100681.00;5061928;28;9932;-66
2022/11/04 10:32:20;;;;;;;;;8.25;8.25;;;;;11.86;77.25;100682.00;5067077;28;9916;-68
2022/11/04 10:35:17;;;;;;;;;9.50;9.50;;;;;11.84;77.41;100684.09;5050752;28;9910;-67
2022/11/04 10:37:49;;;;;;;;;10.75;9.25;;;;;11.87;77.72;100686.38;5063943;28;9998;-66
2022/11/04 10:40:24;;;;;;;;;8.75;8.50;;;;;11.91;77.32;100702.13;5069137;28;10014;-66
2022/11/04 10:42:52;;;;;;;;;9.00;9.00;;;;;11.93;77.55;100698.22;5056619;28;10637;-66
2022/11/04 10:45:26;;;;;;;;;10.00;8.00;;;;;11.97;77.45;100702.16;5064771;28;9934;-67
2022/11/04 10:48:02;;;;;;;;;8.00;8.00;;;;;11.99;77.46;100710.88;5065420;28;9993;-65
2022/11/04 10:50:52;;;;;;;;;6.50;6.50;;;;;12.02;77.47;100712.31;5054288;28;9906;-66
2022/11/04 10:53:25;;;;;;;;;8.00;7.25;;;;;12.05;77.43;100720.00;5060380;28;10631;-65
2022/11/04 10:56:32;;;;;;;;;9.75;8.50;;;;;12.02;77.26;100721.22;5063795;28;9749;-64
2022/11/04 10:59:12;;;;;;;;;8.25;8.25;;;;;12.00;77.13;100720.63;5043775;28;10012;-64
2022/11/04 11:01:50;;;;;;;;;5.00;5.00;;;;;12.02;77.34;100729.31;5055421;28;9841;-65
2022/11/04 11:04:34;;;;;;;;;4.50;4.50;;;;;12.04;77.11;100715.66;5051804;28;9753;-64
2022/11/04 11:07:07;;;;;;;;;6.50;5.25;;;;;12.04;77.22;100718.34;5046741;28;9773;-65
2022/11/04 11:09:39;;;;;;;;;6.75;6.75;;;;;12.02;76.97;100725.81;5053546;28;10486;-65
2022/11/04 11:12:11;;;;;;;;;5.25;5.25;;;;;12.00;77.11;100725.19;5047630;28;10626;-65
2022/11/04 11:14:58;;;;;;;;;6.00;6.00;;;;;12.03;77.05;100724.75;5050079;28;9868;-66
2022/11/04 11:17:36;;;;;;;;;4.50;4.50;;;;;12.05;77.06;100718.13;5050391;28;9922;-67
2022/11/04 11:20:13;;;;;;;;;6.00;5.00;;;;;12.10;77.46;100729.13;5049219;28;9744;-66
2022/11/04 11:22:41;;;;;;;;;5.50;5.50;;;;;12.15;77.31;100725.81;5068033;28;9632;-65
2022/11/04 11:25:20;;;;;;;;;6.75;5.00;;;;;12.23;77.22;100731.00;5053344;28;9591;-64
2022/11/04 11:27:50;;;;;;;;;4.25;4.25;;;;;12.30;77.06;100737.22;5052662;28;9759;-65
2022/11/04 11:30:24;;;;;;;;;4.25;4.25;;;;;12.41;77.27;100743.88;5050887;28;9760;-66
2022/11/04 11:32:57;;;;;;;;;4.75;4.75;;;;;12.41;77.03;100753.84;5051118;28;10426;-66
2022/11/04 11:35:32;;;;;;;;;6.50;6.00;;;;;12.40;76.11;100753.03;5050143;28;9746;-67
2022/11/04 11:38:02;;;;;;;;;9.00;6.00;;;;;12.27;75.31;100755.69;5062043;28;9672;-67
2022/11/04 11:40:39;;;;;;;;;4.00;3.50;;;;;12.18;76.29;100759.66;5049343;28;9671;-66
2022/11/04 11:43:30;;;;;;;;;4.25;4.25;;;;;12.16;76.75;100765.25;5054118;28;9627;-67
2022/11/04 11:45:58;;;;;;;;;6.00;5.00;;;;;12.16;76.82;100762.56;5046170;28;10443;-64
2022/11/04 11:48:49;;;;;;;;;6.00;6.00;;;;;12.15;76.79;100768.16;5048239;28;9611;-66
2022/11/04 11:51:23;;;;;;;;;6.00;6.00;;;;;12.16;76.86;100772.53;5053936;28;9773;-65
2022/11/04 11:54:22;;;;;;;;;5.50;5.50;;;;;12.17;77.00;100764.22;5055308;28;9917;-66
2022/11/04 11:56:54;;;;;;;;;5.25;5.25;;;;;12.19;76.81;100764.81;5052552;28;9859;-66
2022/11/04 11:59:48;;;;;;;;;8.75;6.50;;;;;12.21;76.82;100765.47;5060437;28;9657;-66
2022/11/04 12:03:01;;;;;;;;;5.50;5.00;;;;;12.25;76.67;100766.72;5050277;28;9692;-66
2022/11/04 12:05:40;;;;;;;;;5.50;5.50;;;;;12.27;76.89;100771.91;5050055;28;9655;-66
2022/11/04 12:08:57;;;;;;;;;9.00;7.50;;;;;12.29;76.54;100778.75;5056425;28;9530;-64
2022/11/04 12:11:58;;;;;;;;;8.00;8.00;;;;;12.27;76.77;100791.63;5053508;28;9808;-66
2022/11/04 12:14:38;;;;;;;;;3.75;3.50;;;;;12.24;76.85;100789.34;5047356;28;9866;-67